Terminal Aerodrome Forecast
Issued by NWS Tulsa, OK

Home | Current Version | Previous Version | Text Only | Print | Product List | Glossary On
Versions: 1 2 3 4 5 6 7 8 9 10 11 12 13
000
FTUS44 KTSA 040520
TAFTUL
TAF
KTUL 040520Z 0406/0506 VRB05KT P6SM SCT250
     FM041800 13006KT P6SM SCT050
     FM050100 17004KT P6SM FEW250=

USA.gov is the U.S. government's official web portal to all federal, state and local government web resources and services.